createdAt,value
2022-11-28T00:09:30.156Z,55.80
2022-11-28T00:19:33.231Z,54.30
2022-11-28T00:29:36.323Z,55.20
2022-11-28T00:39:39.337Z,54.60
2022-11-28T00:49:42.629Z,54.80
2022-11-28T00:59:45.717Z,55.80
2022-11-28T01:09:48.835Z,54.80
2022-11-28T01:19:51.961Z,53.60
2022-11-28T01:29:55.112Z,52.80
2022-11-28T01:39:58.588Z,53.20
2022-11-28T01:50:04.284Z,53.80
2022-11-28T02:00:17.038Z,52.50
2022-11-28T02:10:32.804Z,51.90
2022-11-28T02:20:54.418Z,50.80
2022-11-28T02:31:28.908Z,51.50
2022-11-28T02:41:40.794Z,51.30
2022-11-28T02:52:06.415Z,51.80
2022-11-28T03:12:36.903Z,50.20
2022-11-28T03:22:58.962Z,48.30
2022-11-28T03:33:04.302Z,47.40
2022-11-28T03:43:13.868Z,46.40
2022-11-28T03:53:23.104Z,48.00
2022-11-28T04:03:38.385Z,46.00
2022-11-28T04:13:50.191Z,45.50
2022-11-28T04:23:56.619Z,46.70
2022-11-28T04:34:04.072Z,45.90
2022-11-28T04:44:16.120Z,44.40
2022-11-28T04:54:26.619Z,43.50
2022-11-28T05:04:29.777Z,42.20
2022-11-28T05:14:32.903Z,42.30
2022-11-28T05:24:36.015Z,42.70
2022-11-28T05:34:39.505Z,43.30
2022-11-28T05:44:42.786Z,43.40
2022-11-28T05:54:45.780Z,44.30
2022-11-28T06:04:48.831Z,44.50
2022-11-28T06:14:51.891Z,46.60
2022-11-28T06:24:55.031Z,44.30
2022-11-28T06:34:58.159Z,43.40
2022-11-28T06:45:02.218Z,43.70
2022-11-28T06:55:05.763Z,46.50
2022-11-28T07:05:09.054Z,43.50
2022-11-28T07:15:12.530Z,52.00
2022-11-28T07:25:16.179Z,52.30
2022-11-28T07:35:19.370Z,45.50
2022-11-28T07:45:22.978Z,43.10
2022-11-28T07:55:26.153Z,42.30
2022-11-28T08:05:29.277Z,39.80
2022-11-28T08:15:32.515Z,35.30
2022-11-28T08:25:35.607Z,38.40
2022-11-28T08:35:40.058Z,35.90
2022-11-28T08:45:44.729Z,37.70
2022-11-28T08:55:47.908Z,36.70
2022-11-28T09:05:51.284Z,36.80
2022-11-28T09:15:55.557Z,33.50
2022-11-28T09:25:58.667Z,35.00
2022-11-28T09:36:06.709Z,34.00
2022-11-28T09:46:18.700Z,31.50
2022-11-28T09:56:22.637Z,30.20
2022-11-28T10:06:31.890Z,28.90
2022-11-28T10:16:47.459Z,28.10
2022-11-28T10:26:59.601Z,28.10
2022-11-28T10:37:20.052Z,27.40
2022-11-28T10:47:39.446Z,26.10
2022-11-28T10:58:08.800Z,23.30
2022-11-28T11:08:16.170Z,23.70
2022-11-28T11:18:28.881Z,19.10
2022-11-28T11:28:31.901Z,19.30
2022-11-28T11:38:38.076Z,21.40
2022-11-28T11:48:47.780Z,22.20
2022-11-28T11:58:54.661Z,21.00
2022-11-28T12:09:25.273Z,22.10
2022-11-28T12:19:37.541Z,21.80
2022-11-28T12:30:29.285Z,22.70
2022-11-28T12:40:38.448Z,25.70
2022-11-28T12:50:52.702Z,25.70
2022-11-28T13:01:03.475Z,28.10
2022-11-28T13:11:19.788Z,31.30
2022-11-28T13:21:40.060Z,26.60
2022-11-28T13:31:51.344Z,27.80
2022-11-28T13:42:36.007Z,28.20
2022-11-28T13:52:29.531Z,27.20
2022-11-28T14:02:38.708Z,26.50
2022-11-28T14:12:51.808Z,25.10
2022-11-28T14:23:49.519Z,26.50
2022-11-28T14:34:10.547Z,24.80
2022-11-28T14:44:47.750Z,26.90
2022-11-28T14:54:53.138Z,26.80
2022-11-28T15:05:13.921Z,29.10
2022-11-28T15:15:20.572Z,28.40
2022-11-28T15:25:26.616Z,24.40
2022-11-28T15:35:30.847Z,26.80
2022-11-28T15:45:36.006Z,25.90
2022-11-28T15:55:39.189Z,27.20
2022-11-28T16:05:43.843Z,28.00
2022-11-28T16:15:51.663Z,30.00
2022-11-28T16:26:04.259Z,28.70
2022-11-28T16:36:34.533Z,32.00
2022-11-28T16:46:54.088Z,30.30
2022-11-28T16:57:19.186Z,29.50
2022-11-28T17:07:24.319Z,32.20
2022-11-28T17:17:27.900Z,28.60
2022-11-28T17:27:30.957Z,28.70
2022-11-28T17:37:34.102Z,28.60
2022-11-28T17:47:37.206Z,28.50
2022-11-28T17:57:40.310Z,27.80
2022-11-28T18:07:43.559Z,28.70
2022-11-28T18:17:48.591Z,26.90
2022-11-28T18:27:51.961Z,26.80
2022-11-28T18:37:54.985Z,26.20
2022-11-28T18:48:00.410Z,29.00
2022-11-28T18:58:04.145Z,29.70
2022-11-28T19:08:07.407Z,26.70
2022-11-28T19:18:10.680Z,29.30
2022-11-28T19:28:14.317Z,28.60
2022-11-28T19:38:17.810Z,29.00
2022-11-28T19:48:21.527Z,31.40
2022-11-28T19:58:25.790Z,27.90
2022-11-28T20:08:29.101Z,28.20
2022-11-28T20:18:33.709Z,27.40
2022-11-28T20:28:38.526Z,26.30
2022-11-28T20:38:41.912Z,26.50
2022-11-28T20:48:45.793Z,26.60
2022-11-28T20:58:49.292Z,24.40
2022-11-28T21:08:52.558Z,21.70
2022-11-28T21:18:57.426Z,20.90
2022-11-28T21:29:06.214Z,21.30
2022-11-28T21:39:15.563Z,20.10
2022-11-28T21:49:18.878Z,20.80
2022-11-28T21:59:22.470Z,20.20
2022-11-28T22:09:25.755Z,21.60
2022-11-28T22:19:29.408Z,20.50
2022-11-28T22:29:32.837Z,21.50
2022-11-28T22:39:36.199Z,20.30
2022-11-28T22:49:39.457Z,21.70
2022-11-28T22:59:43.631Z,21.40
2022-11-28T23:09:46.841Z,21.70
2022-11-28T23:19:50.140Z,20.90
2022-11-28T23:29:53.440Z,21.40
2022-11-28T23:39:56.773Z,19.80
2022-11-28T23:49:59.938Z,20.60
